Time;durP1;ratioP1;P1;durP2;ratioP2;P2;SDS_P1;SDS_P2;PMS_P1;PMS_P2;Temp;Humidity;BMP_temperature;BMP_pressure;BME280_temperature;BME280_humidity;BME280_pressure;Samples;Min_cycle;Max_cycle;Signal;HPM_P1;HPM_P2
2023/04/14 00:01:17;;;;;;;10.93;5.80;;;;;;;12.64;57.24;93933.41;4993461;28;20270;-76
2023/04/14 00:03:42;;;;;;;7.93;4.37;;;;;;;12.67;56.63;93937.41;4991629;28;20196;-76
2023/04/14 00:06:08;;;;;;;10.53;5.83;;;;;;;12.72;57.48;93929.53;5000093;28;20292;-76
2023/04/14 00:08:33;;;;;;;11.03;6.20;;;;;;;12.69;58.63;93927.41;5003293;28;20569;-76
2023/04/14 00:10:59;;;;;;;14.57;7.60;;;;;;;12.43;59.56;93924.44;5009841;28;20499;-76
2023/04/14 00:13:24;;;;;;;10.07;6.13;;;;;;;12.46;58.68;93917.88;5011515;28;20426;-76
2023/04/14 00:15:50;;;;;;;9.23;6.17;;;;;;;12.53;59.04;93915.06;5003389;28;20176;-76
2023/04/14 00:18:15;;;;;;;19.47;5.87;;;;;;;12.40;58.85;93887.97;5005860;28;20191;-76
2023/04/14 00:20:40;;;;;;;10.40;5.70;;;;;;;12.58;59.11;93905.34;5015323;28;20255;-76
2023/04/14 00:23:06;;;;;;;8.13;5.10;;;;;;;12.63;57.80;93907.25;5006967;28;20569;-76
2023/04/14 00:25:31;;;;;;;11.60;5.40;;;;;;;12.65;57.31;93915.72;5007009;28;20184;-76
2023/04/14 00:27:57;;;;;;;14.27;6.30;;;;;;;12.58;57.91;93900.06;5002837;28;20251;-76
2023/04/14 00:30:22;;;;;;;11.07;5.77;;;;;;;12.69;57.66;93911.56;5003181;28;20637;-76
2023/04/14 00:32:47;;;;;;;11.40;6.80;;;;;;;12.67;58.36;93913.63;5012614;28;20188;-76
2023/04/14 00:35:13;;;;;;;11.13;7.00;;;;;;;12.47;58.21;93882.50;5009008;28;20267;-76
2023/04/14 00:37:38;;;;;;;11.43;6.50;;;;;;;12.57;58.13;93892.41;5006000;28;20256;-76
2023/04/14 00:40:05;;;;;;;11.93;6.27;;;;;;;12.65;58.79;93905.97;5003765;28;20170;-76
2023/04/14 00:42:30;;;;;;;7.43;4.80;;;;;;;12.70;59.38;93910.50;5003493;28;20255;-76
2023/04/14 00:44:56;;;;;;;12.80;4.63;;;;;;;12.71;58.75;93910.25;5013648;28;20630;-76
2023/04/14 00:47:21;;;;;;;12.37;5.53;;;;;;;12.65;58.84;93892.75;5008013;28;20205;-76
2023/04/14 00:49:47;;;;;;;8.13;4.73;;;;;;;12.63;57.26;93902.75;5012029;28;20231;-76
2023/04/14 00:52:13;;;;;;;11.40;4.57;;;;;;;12.71;59.54;93904.19;5014767;28;20650;-76
2023/04/14 00:54:39;;;;;;;7.63;5.03;;;;;;;12.65;59.61;93897.22;5006260;28;20560;-76
2023/04/14 00:57:06;;;;;;;11.67;5.97;;;;;;;12.60;59.54;93881.34;5004179;28;20188;-76
2023/04/14 00:59:31;;;;;;;15.47;7.43;;;;;;;12.69;59.18;93901.78;4994856;28;20184;-76
2023/04/14 01:01:58;;;;;;;16.03;7.77;;;;;;;12.68;58.50;93894.13;4994353;28;20412;-75
2023/04/14 01:04:24;;;;;;;15.03;7.63;;;;;;;12.46;59.10;93878.28;5002907;28;20213;-75
2023/04/14 01:06:49;;;;;;;15.23;6.77;;;;;;;12.50;59.70;93889.16;5018701;28;20284;-76
2023/04/14 01:09:15;;;;;;;18.75;9.55;;;;;;;12.48;59.24;93898.09;5000687;28;20416;-76
2023/04/14 01:12:33;;;;;;;18.60;7.23;;;;;;;12.49;60.10;93890.97;4996895;28;20212;-76
2023/04/14 01:15:26;;;;;;;16.27;7.97;;;;;;;12.46;59.99;93883.56;5001987;28;20192;-76
2023/04/14 01:18:24;;;;;;;15.77;7.77;;;;;;;12.46;60.33;93897.53;5010322;28;20168;-75
2023/04/14 01:20:55;;;;;;;12.50;5.83;;;;;;;12.45;60.32;93888.03;4991600;28;20240;-76
2023/04/14 01:23:25;;;;;;;8.83;4.50;;;;;;;12.40;60.25;93890.63;5005578;28;20283;-76
2023/04/14 01:26:14;;;;;;;12.43;6.03;;;;;;;12.44;60.96;93889.09;4996779;28;20169;-76
2023/04/14 01:29:05;;;;;;;10.17;6.00;;;;;;;12.48;60.96;93890.19;5009855;28;20176;-76
2023/04/14 01:31:36;;;;;;;12.60;6.30;;;;;;;12.41;61.67;93875.59;5022516;28;20261;-76
2023/04/14 01:34:22;;;;;;;16.70;6.00;;;;;;;12.52;61.55;93885.22;5002441;28;20177;-76
2023/04/14 01:36:55;;;;;;;9.70;6.40;;;;;;;12.37;61.34;93863.91;5004629;28;20180;-76
2023/04/14 01:39:25;;;;;;;14.23;8.10;;;;;;;12.52;61.12;93884.44;5004936;28;20169;-76
2023/04/14 01:41:55;;;;;;;15.00;8.50;;;;;;;12.54;61.81;93885.00;4997972;28;20173;-76
2023/04/14 01:44:22;;;;;;;16.23;7.90;;;;;;;12.50;60.82;93887.31;5006543;28;20177;-76
2023/04/14 01:46:50;;;;;;;10.47;7.40;;;;;;;12.41;60.69;93884.31;5005084;28;20636;-76
2023/04/14 01:49:19;;;;;;;13.90;7.60;;;;;;;12.30;60.79;93861.47;5011163;28;20323;-76
2023/04/14 01:51:46;;;;;;;12.63;6.10;;;;;;;12.35;60.27;93880.00;5012394;28;20418;-76
2023/04/14 01:54:15;;;;;;;12.33;6.03;;;;;;;12.29;59.66;93861.69;5008905;28;20180;-76
2023/04/14 01:56:42;;;;;;;10.80;6.37;;;;;;;12.16;60.25;93833.84;4994018;28;20650;-76
2023/04/14 01:59:10;;;;;;;11.27;5.13;;;;;;;12.42;60.50;93871.91;5002522;28;20185;-76
2023/04/14 02:01:37;;;;;;;9.33;4.83;;;;;;;12.22;60.25;93867.16;5002518;28;20169;-76
2023/04/14 02:04:04;;;;;;;5.27;4.30;;;;;;;12.16;60.45;93877.91;5002456;28;20263;-76
2023/04/14 02:06:31;;;;;;;8.73;4.85;;;;;;;12.16;60.62;93891.09;5017059;28;20975;-76
2023/04/14 02:09:00;;;;;;;6.67;4.63;;;;;;;12.18;60.97;93889.81;5013071;28;20200;-76
2023/04/14 02:11:28;;;;;;;8.20;4.33;;;;;;;12.26;60.74;93885.97;5013185;28;20173;-76
2023/04/14 02:13:55;;;;;;;20.37;6.70;;;;;;;12.33;61.30;93886.56;5008835;28;20173;-76
2023/04/14 02:16:22;;;;;;;10.45;5.47;;;;;;;12.23;60.69;93884.59;4993085;28;20412;-76
2023/04/14 02:18:49;;;;;;;7.27;4.80;;;;;;;12.26;61.13;93880.69;5002302;28;20177;-76
2023/04/14 02:21:16;;;;;;;10.27;4.97;;;;;;;12.32;61.58;93884.97;5002211;28;20185;-76
2023/04/14 02:23:42;;;;;;;6.37;4.50;;;;;;;12.25;62.26;93864.06;5002558;28;20678;-76
2023/04/14 02:26:13;;;;;;;9.30;5.30;;;;;;;12.15;61.33;93889.50;5010991;28;20460;-76
2023/04/14 02:28:52;;;;;;;7.50;4.33;;;;;;;12.13;61.87;93889.75;5012375;28;20284;-76
2023/04/14 02:31:22;;;;;;;7.03;4.50;;;;;;;12.20;61.54;93889.56;5004176;28;20188;-76
2023/04/14 02:33:52;;;;;;;6.13;4.47;;;;;;;12.25;61.20;93869.31;5003946;28;20568;-76
2023/04/14 02:36:26;;;;;;;7.97;4.20;;;;;;;12.31;61.64;93881.53;5006778;28;20229;-76
2023/04/14 02:38:57;;;;;;;6.93;4.03;;;;;;;12.26;60.71;93881.47;5001899;28;21005;-76
2023/04/14 02:41:27;;;;;;;10.00;4.27;;;;;;;12.28;61.38;93876.72;5011978;28;20180;-76
2023/04/14 02:44:20;;;;;;;7.27;3.90;;;;;;;12.28;60.54;93895.22;5028137;28;20611;-76
2023/04/14 02:46:54;;;;;;;6.70;4.10;;;;;;;12.11;61.50;93856.75;4992488;28;20530;-76
2023/04/14 02:49:22;;;;;;;5.63;3.70;;;;;;;12.22;61.80;93876.91;4993186;28;20250;-76
2023/04/14 02:51:49;;;;;;;7.97;4.50;;;;;;;12.21;60.73;93876.13;4992754;28;20185;-76
2023/04/14 02:54:18;;;;;;;5.70;4.37;;;;;;;12.21;61.49;93854.22;4992686;28;20733;-76
2023/04/14 02:56:44;;;;;;;7.07;4.07;;;;;;;12.18;61.53;93867.91;5005477;28;20522;-76
2023/04/14 02:59:11;;;;;;;10.55;4.55;;;;;;;12.08;61.99;93835.09;5011149;28;20425;-76
2023/04/14 03:01:38;;;;;;;12.10;4.23;;;;;;;12.20;62.41;93858.69;5002201;28;20251;-76
2023/04/14 03:04:04;;;;;;;9.30;4.03;;;;;;;12.15;62.65;93840.19;4996961;28;20955;-76
2023/04/14 03:06:30;;;;;;;6.43;4.17;;;;;;;12.05;61.95;93838.22;5010498;28;20480;-76
2023/04/14 03:08:58;;;;;;;6.10;4.00;;;;;;;12.16;62.10;93857.59;5003711;28;20207;-76
2023/04/14 03:11:25;;;;;;;10.98;4.68;;;;;;;12.06;63.28;93871.47;5008121;28;20406;-76
2023/04/14 03:13:53;;;;;;;10.67;4.00;;;;;;;11.92;63.82;93835.94;5006320;28;20176;-76
2023/04/14 03:16:24;;;;;;;6.43;4.10;;;;;;;11.96;63.14;93823.03;5012344;28;20223;-76
2023/04/14 03:18:51;;;;;;;9.65;4.50;;;;;;;12.08;62.43;93856.19;5002425;28;20480;-76
2023/04/14 03:21:18;;;;;;;10.23;4.68;;;;;;;11.73;63.57;93869.66;5010673;28;20454;-76
2023/04/14 03:23:45;;;;;;;12.13;4.57;;;;;;;11.67;64.40;93857.44;5025835;28;20468;-76
2023/04/14 03:26:17;;;;;;;13.73;4.80;;;;;;;11.61;64.41;93842.59;4994234;28;20724;-75
2023/04/14 03:28:45;;;;;;;5.50;3.87;;;;;;;11.85;63.90;93845.84;5004376;28;20238;-75
2023/04/14 03:31:12;;;;;;;11.45;4.40;;;;;;;11.70;62.97;93830.59;4996458;28;20470;-75
2023/04/14 03:33:39;;;;;;;8.83;3.97;;;;;;;11.85;63.65;93823.97;5009160;28;20281;-76
2023/04/14 03:36:06;;;;;;;8.43;4.67;;;;;;;11.97;63.41;93819.38;5000983;28;20244;-76
2023/04/14 03:38:33;;;;;;;12.00;5.20;;;;;;;12.05;62.51;93819.75;4996064;28;20183;-76
2023/04/14 03:41:04;;;;;;;8.47;3.80;;;;;;;12.02;63.10;93814.19;5004919;28;20641;-76
2023/04/14 03:43:32;;;;;;;7.53;4.57;;;;;;;11.84;64.10;93777.56;5008462;28;20421;-76
2023/04/14 03:45:58;;;;;;;6.40;3.63;;;;;;;12.00;63.05;93776.69;5011664;28;21120;-76
2023/04/14 03:48:25;;;;;;;9.20;4.00;;;;;;;12.16;61.64;93785.56;5011734;28;20247;-76
2023/04/14 03:50:52;;;;;;;9.03;4.60;;;;;;;12.25;61.81;93790.16;5003850;28;20240;-76
2023/04/14 03:53:20;;;;;;;8.27;4.33;;;;;;;12.10;61.68;93768.91;5004809;28;20179;-76
2023/04/14 03:55:48;;;;;;;7.50;4.00;;;;;;;12.23;61.93;93796.72;5008862;28;20406;-76
2023/04/14 03:58:16;;;;;;;9.27;4.23;;;;;;;11.96;62.28;93772.94;5006893;28;20184;-76
2023/04/14 04:00:42;;;;;;;8.20;4.13;;;;;;;12.15;62.76;93789.25;5006801;28;20177;-76
2023/04/14 04:03:09;;;;;;;10.23;4.60;;;;;;;12.18;62.99;93789.56;5003858;28;20184;-76
2023/04/14 04:05:38;;;;;;;17.45;8.45;;;;;;;12.03;63.24;93802.56;5009064;28;20935;-76
2023/04/14 04:08:05;;;;;;;21.23;9.20;;;;;;;11.99;63.92;93801.47;5013897;28;21014;-76
2023/04/14 04:10:35;;;;;;;21.38;10.73;;;;;;;11.98;63.49;93803.31;5014175;28;21046;-76
2023/04/14 04:13:01;;;;;;;17.10;7.17;;;;;;;12.07;63.45;93801.84;5004590;28;20193;-76
2023/04/14 04:15:29;;;;;;;18.27;9.13;;;;;;;12.14;63.40;93796.38;5004282;28;20212;-76
2023/04/14 04:17:57;;;;;;;17.47;8.17;;;;;;;12.08;63.34;93773.63;5013238;28;20164;-76
2023/04/14 04:20:23;;;;;;;14.83;8.30;;;;;;;12.21;62.75;93781.16;5006725;28;20185;-76
2023/04/14 04:22:50;;;;;;;25.07;10.90;;;;;;;12.13;62.92;93780.78;5001142;28;20975;-77
2023/04/14 04:25:16;;;;;;;19.67;8.27;;;;;;;11.93;64.71;93790.06;5002266;28;20420;-77
2023/04/14 04:27:42;;;;;;;13.70;7.37;;;;;;;11.88;65.07;93786.56;5005934;28;20207;-76
2023/04/14 04:30:09;;;;;;;25.43;11.57;;;;;;;12.07;65.04;93816.88;5010799;28;20420;-76
2023/04/14 04:32:37;;;;;;;12.88;8.32;;;;;;;11.87;65.43;93813.97;4997419;28;20777;-77
2023/04/14 04:35:05;;;;;;;13.80;7.87;;;;;;;11.65;65.45;93798.91;5013103;28;20220;-76
2023/04/14 04:37:32;;;;;;;15.63;8.40;;;;;;;11.78;65.15;93810.16;5015414;28;20188;-77
2023/04/14 04:39:58;;;;;;;15.30;8.63;;;;;;;11.88;66.06;93818.19;5001663;28;20173;-77
2023/04/14 04:42:23;;;;;;;15.63;8.53;;;;;;;12.00;65.94;93837.34;5011541;28;20191;-77
2023/04/14 04:44:49;;;;;;;11.33;6.53;;;;;;;12.02;64.69;93840.56;5006083;28;20188;-77
2023/04/14 04:47:15;;;;;;;12.90;7.57;;;;;;;12.05;65.03;93837.41;5010159;28;20258;-77
2023/04/14 04:49:40;;;;;;;16.80;8.53;;;;;;;12.14;65.00;93832.50;5001103;28;20173;-77
2023/04/14 04:52:06;;;;;;;12.00;7.30;;;;;;;12.29;64.32;93816.84;5010709;28;20177;-77
2023/04/14 04:54:31;;;;;;;15.63;6.70;;;;;;;12.40;62.06;93806.16;5013685;28;20180;-77
2023/04/14 04:56:57;;;;;;;13.37;7.77;;;;;;;12.31;62.07;93785.75;5011578;28;20208;-77
2023/04/14 04:59:23;;;;;;;16.80;8.13;;;;;;;12.33;62.43;93781.81;5009260;28;20195;-77
2023/04/14 05:01:49;;;;;;;13.00;6.87;;;;;;;12.58;62.15;93807.66;4998483;28;20181;-77
2023/04/14 05:04:14;;;;;;;13.27;7.57;;;;;;;12.65;61.71;93796.91;5003148;28;20184;-77
2023/04/14 05:06:40;;;;;;;12.57;6.97;;;;;;;12.57;61.25;93778.88;5007334;28;20688;-77
2023/04/14 05:09:05;;;;;;;17.83;7.53;;;;;;;12.55;62.11;93778.31;5009161;28;20278;-77
2023/04/14 05:11:31;;;;;;;16.40;9.00;;;;;;;12.58;62.00;93786.56;5004385;28;20209;-77
2023/04/14 05:13:57;;;;;;;14.13;7.67;;;;;;;12.39;62.19;93785.28;4997486;28;20181;-77
2023/04/14 05:16:23;;;;;;;25.30;7.73;;;;;;;12.51;62.31;93806.28;5007191;28;20177;-77
2023/04/14 05:18:48;;;;;;;14.83;8.40;;;;;;;12.57;62.21;93807.91;5006016;28;20184;-77
2023/04/14 05:21:14;;;;;;;13.30;7.80;;;;;;;12.61;62.69;93798.47;5006520;28;20177;-76
2023/04/14 05:23:42;;;;;;;15.47;7.60;;;;;;;12.74;63.34;93783.00;5004729;28;20541;-77
2023/04/14 05:26:08;;;;;;;14.40;7.93;;;;;;;12.88;63.26;93766.75;5014252;28;20183;-77
2023/04/14 05:28:34;;;;;;;10.67;6.30;;;;;;;12.73;61.32;93773.50;4999233;28;20205;-77
2023/04/14 05:30:59;;;;;;;11.73;6.03;;;;;;;12.81;61.30;93785.44;5003340;28;20208;-77
2023/04/14 05:33:25;;;;;;;12.47;7.03;;;;;;;12.75;61.36;93752.13;5005537;28;20192;-77
2023/04/14 05:35:50;;;;;;;13.67;5.60;;;;;;;12.92;60.39;93747.50;5005308;28;20227;-77
2023/04/14 05:38:17;;;;;;;8.40;4.83;;;;;;;12.94;59.70;93765.75;5005294;28;20256;-77
2023/04/14 05:40:43;;;;;;;15.60;6.53;;;;;;;12.86;59.97;93716.84;4996350;28;20204;-77
2023/04/14 05:43:09;;;;;;;12.13;5.30;;;;;;;12.97;58.71;93750.22;5005500;28;20192;-77
2023/04/14 05:45:35;;;;;;;8.23;4.80;;;;;;;13.07;59.48;93741.53;5005325;28;20164;-77
2023/04/14 05:48:00;;;;;;;11.60;5.53;;;;;;;13.20;60.41;93714.72;5006926;28;20249;-77
2023/04/14 05:50:26;;;;;;;8.10;5.77;;;;;;;13.46;60.50;93742.09;5012079;28;20211;-77
2023/04/14 05:52:52;;;;;;;10.83;5.33;;;;;;;13.59;57.95;93736.34;5011012;28;20184;-77
2023/04/14 05:55:18;;;;;;;8.43;4.40;;;;;;;13.72;56.99;93754.41;4994322;28;20185;-76
2023/04/14 05:57:44;;;;;;;9.07;4.50;;;;;;;13.73;56.81;93731.41;5020906;28;20226;-77
2023/04/14 06:00:11;;;;;;;8.07;4.63;;;;;;;13.89;57.27;93733.84;5004560;28;20184;-77
2023/04/14 06:02:37;;;;;;;6.87;3.47;;;;;;;13.94;55.24;93736.50;5010492;28;20185;-77
2023/04/14 06:05:05;;;;;;;11.50;3.45;;;;;;;13.79;56.21;93688.84;4993549;28;20189;-77
2023/04/14 06:07:31;;;;;;;9.57;3.23;;;;;;;14.09;54.34;93735.00;5001598;28;20858;-77
2023/04/14 06:09:56;;;;;;;6.88;3.25;;;;;;;13.98;55.01;93719.06;5013175;28;20191;-77
2023/04/14 06:12:21;;;;;;;4.40;3.30;;;;;;;14.01;54.46;93709.03;5009672;28;21010;-77
2023/04/14 06:14:47;;;;;;;5.43;2.78;;;;;;;13.95;54.82;93713.50;5007157;28;20172;-77
2023/04/14 06:17:12;;;;;;;7.70;2.78;;;;;;;14.02;54.27;93714.03;5004266;28;20207;-77
2023/04/14 06:19:38;;;;;;;7.97;3.57;;;;;;;14.07;54.08;93686.81;5002701;28;20574;-77
2023/04/14 06:22:04;;;;;;;7.03;2.80;;;;;;;13.94;53.33;93699.47;5002452;28;20197;-77
2023/04/14 06:24:32;;;;;;;8.40;3.57;;;;;;;13.95;54.00;93693.13;5003637;28;20177;-77
2023/04/14 06:26:57;;;;;;;6.13;3.00;;;;;;;13.95;54.34;93706.34;5013000;28;20200;-77
2023/04/14 06:29:23;;;;;;;5.27;3.30;;;;;;;14.10;53.75;93687.06;5019649;28;20630;-77
2023/04/14 06:31:50;;;;;;;4.37;3.37;;;;;;;14.08;53.81;93670.69;5011318;28;20184;-77
2023/04/14 06:34:16;;;;;;;5.13;3.00;;;;;;;14.40;53.13;93651.16;5004141;28;20184;-77
2023/04/14 06:36:41;;;;;;;8.20;3.10;;;;;;;14.45;52.31;93654.59;5004039;28;20657;-77
2023/04/14 06:39:07;;;;;;;8.53;2.87;;;;;;;14.58;51.96;93658.59;5001795;28;20264;-77
2023/04/14 06:41:32;;;;;;;4.82;2.80;;;;;;;14.61;51.89;93648.28;4996670;28;20191;-77
2023/04/14 06:43:58;;;;;;;8.00;3.30;;;;;;;14.67;51.72;93654.34;5012924;28;20239;-77
2023/04/14 06:46:23;;;;;;;12.05;3.00;;;;;;;14.75;51.44;93640.56;5003908;28;20674;-76
2023/04/14 06:48:49;;;;;;;6.38;2.70;;;;;;;14.83;50.98;93618.84;5001175;28;20173;-77
2023/04/14 06:51:14;;;;;;;5.22;3.08;;;;;;;14.95;50.62;93622.00;5001378;28;20192;-77
2023/04/14 06:53:40;;;;;;;3.88;2.67;;;;;;;14.96;50.22;93604.25;5001313;28;20916;-76
2023/04/14 06:56:06;;;;;;;7.95;2.75;;;;;;;14.98;52.02;93612.72;5001742;28;20177;-76
2023/04/14 06:58:32;;;;;;;6.78;2.80;;;;;;;14.89;50.93;93607.16;5027273;28;20723;-76
2023/04/14 07:00:58;;;;;;;5.07;3.17;;;;;;;15.05;51.87;93607.91;5003372;28;20184;-75
2023/04/14 07:03:25;;;;;;;5.28;2.78;;;;;;;15.36;51.32;93606.78;5011867;28;20176;-75
2023/04/14 07:05:51;;;;;;;5.55;2.80;;;;;;;15.62;50.22;93615.47;4993643;28;20216;-75
2023/04/14 07:08:18;;;;;;;4.13;2.40;;;;;;;15.96;49.55;93617.41;4995364;28;20235;-75
2023/04/14 07:10:43;;;;;;;8.15;3.58;;;;;;;16.34;48.27;93621.16;5006148;28;20177;-76
2023/04/14 07:13:09;;;;;;;4.43;2.67;;;;;;;16.56;47.59;93614.34;5000961;28;20713;-76
2023/04/14 07:15:34;;;;;;;7.38;2.70;;;;;;;16.95;46.23;93600.22;4994694;28;20199;-76
2023/04/14 07:18:00;;;;;;;4.82;2.65;;;;;;;17.22;45.60;93610.28;4999549;28;20207;-75
2023/04/14 07:20:27;;;;;;;7.30;3.28;;;;;;;17.33;44.84;93591.28;5003411;28;20216;-76
2023/04/14 07:22:52;;;;;;;2.75;2.17;;;;;;;17.28;45.00;93604.66;5003415;28;20676;-76
2023/04/14 07:25:18;;;;;;;5.88;2.72;;;;;;;17.37;45.01;93601.38;5010187;28;20188;-76
2023/04/14 07:27:43;;;;;;;4.47;2.25;;;;;;;17.44;45.04;93588.50;5013866;28;20240;-76
2023/04/14 07:30:09;;;;;;;7.97;2.40;;;;;;;17.70;43.75;93611.13;4998188;28;20204;-76
2023/04/14 07:32:34;;;;;;;4.40;2.88;;;;;;;17.98;43.47;93612.09;5003258;28;20184;-76
2023/04/14 07:35:00;;;;;;;8.27;1.90;;;;;;;18.20;42.40;93587.53;5002524;28;20757;-76
2023/04/14 07:37:25;;;;;;;3.90;2.38;;;;;;;18.68;44.00;93588.94;5007752;28;20177;-76
2023/04/14 07:39:51;;;;;;;5.85;2.63;;;;;;;19.31;40.81;93600.91;5002448;28;20223;-77
2023/04/14 07:42:16;;;;;;;4.63;2.30;;;;;;;19.47;40.55;93602.19;5009231;28;20180;-76
2023/04/14 07:44:42;;;;;;;4.57;2.33;;;;;;;19.63;40.20;93590.19;4994178;28;20265;-77
2023/04/14 07:47:07;;;;;;;6.55;2.42;;;;;;;19.46;39.28;93576.59;4998714;28;20193;-77
2023/04/14 07:49:33;;;;;;;2.63;1.92;;;;;;;19.72;39.72;93604.38;5006692;28;20212;-76
2023/04/14 07:51:58;;;;;;;6.60;2.90;;;;;;;19.77;38.54;93571.47;4992005;28;20196;-77
2023/04/14 07:54:24;;;;;;;7.93;2.75;;;;;;;20.10;39.02;93570.19;5004797;28;20180;-77
2023/04/14 07:56:50;;;;;;;9.07;3.65;;;;;;;20.12;37.72;93554.66;5012030;28;20168;-78
2023/04/14 07:59:15;;;;;;;14.40;2.50;;;;;;;20.69;38.36;93566.41;5003479;28;20661;-77
2023/04/14 08:01:41;;;;;;;7.30;2.70;;;;;;;20.56;36.88;93580.66;4996778;28;20174;-77
2023/04/14 08:04:06;;;;;;;3.90;2.20;;;;;;;20.81;37.04;93570.44;4998697;28;20181;-77
2023/04/14 08:06:32;;;;;;;7.95;2.53;;;;;;;20.70;36.58;93573.34;5001830;28;20205;-77
2023/04/14 08:08:57;;;;;;;6.85;2.20;;;;;;;20.81;37.62;93552.50;4999834;28;20204;-77
2023/04/14 08:11:23;;;;;;;8.40;2.53;;;;;;;21.15;36.39;93565.25;4994566;28;20208;-75
2023/04/14 08:13:49;;;;;;;8.68;2.92;;;;;;;21.31;35.67;93533.53;4997431;28;20184;-77
2023/04/14 08:16:15;;;;;;;9.32;2.67;;;;;;;21.80;36.52;93564.56;5024592;28;20187;-77
2023/04/14 08:18:41;;;;;;;9.23;2.60;;;;;;;21.78;33.92;93572.13;5008206;28;20252;-77
2023/04/14 08:21:06;;;;;;;5.20;2.97;;;;;;;21.46;34.31;93574.06;5003274;28;20168;-77
2023/04/14 08:23:32;;;;;;;6.18;2.22;;;;;;;21.37;35.54;93564.44;5008180;28;20183;-77
2023/04/14 08:25:57;;;;;;;5.68;1.88;;;;;;;21.07;34.75;93577.50;5002532;28;20180;-77
2023/04/14 08:28:23;;;;;;;5.55;2.78;;;;;;;21.02;35.76;93571.47;5005683;28;20200;-77
2023/04/14 08:30:49;;;;;;;4.80;2.50;;;;;;;20.83;36.29;93554.88;5003175;28;20235;-78
2023/04/14 08:33:14;;;;;;;8.95;2.45;;;;;;;21.01;36.57;93578.75;5003809;28;20189;-76
2023/04/14 08:35:40;;;;;;;4.20;2.50;;;;;;;21.22;36.02;93573.66;4999826;28;20248;-76
2023/04/14 08:38:05;;;;;;;5.00;2.13;;;;;;;21.74;34.72;93571.16;4992777;28;20205;-79
2023/04/14 08:40:42;;;;;;;9.18;2.70;;;;;;;22.22;33.14;93578.38;5003704;28;20172;-77
2023/04/14 08:43:09;;;;;;;11.98;2.70;;;;;;;22.25;33.36;93583.88;5005825;28;20961;-77
2023/04/14 08:45:35;;;;;;;3.45;2.08;;;;;;;22.57;34.00;93586.09;5009504;28;20180;-78
2023/04/14 08:48:02;;;;;;;5.13;2.55;;;;;;;23.04;33.43;93609.59;5008284;28;20228;-77
2023/04/14 08:50:44;;;;;;;9.18;2.63;;;;;;;23.12;31.82;93600.75;5001106;28;20264;-78
2023/04/14 08:53:12;;;;;;;9.63;2.47;;;;;;;23.35;30.62;93606.69;5008090;28;20246;-77
2023/04/14 08:55:41;;;;;;;5.72;2.40;;;;;;;23.50;32.23;93606.97;5004244;28;20276;-76
2023/04/14 08:58:10;;;;;;;14.95;2.78;;;;;;;23.39;30.81;93575.38;5007944;28;20184;-77
2023/04/14 09:00:38;;;;;;;12.48;3.40;;;;;;;23.86;34.48;93593.06;5006162;28;20207;-78
2023/04/14 09:03:04;;;;;;;22.30;3.83;;;;;;;23.75;29.95;93583.78;5002813;28;20192;-78
2023/04/14 09:05:30;;;;;;;19.25;3.03;;;;;;;23.89;30.06;93589.72;5007307;28;20530;-77
2023/04/14 09:07:57;;;;;;;34.65;4.10;;;;;;;23.58;27.53;93603.47;5010566;28;20907;-79
2023/04/14 09:10:23;;;;;;;21.92;3.25;;;;;;;23.18;26.93;93591.41;5009019;28;20272;-77
2023/04/14 09:12:49;;;;;;;8.10;2.40;;;;;;;22.92;27.77;93576.13;5007299;28;20234;-78
2023/04/14 09:15:15;;;;;;;26.02;4.25;;;;;;;23.01;29.99;93580.69;5007931;28;20682;-78
2023/04/14 09:17:41;;;;;;;34.90;4.45;;;;;;;23.15;29.92;93584.78;5020740;28;20172;-77
2023/04/14 09:20:07;;;;;;;14.88;2.70;;;;;;;22.93;28.92;93560.81;5005684;28;20646;-77
2023/04/14 09:22:33;;;;;;;19.27;2.88;;;;;;;22.62;29.74;93563.69;5003641;28;20177;-77
2023/04/14 09:24:59;;;;;;;17.52;3.33;;;;;;;22.22;30.69;93556.94;5003369;28;20192;-78
2023/04/14 09:27:25;;;;;;;14.25;2.85;;;;;;;22.46;31.75;93566.09;5007906;28;20238;-79
2023/04/14 09:29:55;;;;;;;14.30;3.10;;;;;;;22.59;32.60;93589.25;5008637;28;20576;-78
2023/04/14 09:32:22;;;;;;;19.50;3.70;;;;;;;22.52;29.79;93580.91;5011619;28;20172;-78
2023/04/14 09:34:52;;;;;;;20.52;3.45;;;;;;;22.22;31.87;93587.22;5008519;28;20694;-78
2023/04/14 09:37:19;;;;;;;27.17;3.28;;;;;;;22.03;32.14;93586.72;5011027;28;20658;-77
2023/04/14 09:39:53;;;;;;;30.15;3.50;;;;;;;22.09;30.96;93580.09;5008518;28;20672;-78
2023/04/14 09:42:18;;;;;;;37.00;3.53;;;;;;;22.23;30.93;93590.69;5005534;28;20169;-75
2023/04/14 09:44:54;;;;;;;29.42;4.63;;;;;;;22.26;32.34;93561.34;5007422;28;20661;-77
2023/04/14 09:47:21;;;;;;;20.58;2.60;;;;;;;22.31;31.67;93581.84;5000398;28;20200;-77
2023/04/14 09:49:58;;;;;;;85.07;8.30;;;;;;;22.47;32.72;93582.97;5004226;28;20664;-76
2023/04/14 09:52:40;;;;;;;30.52;4.38;;;;;;;22.63;31.49;93581.38;5003452;28;20188;-78
2023/04/14 09:55:11;;;;;;;49.28;5.68;;;;;;;22.34;32.76;93587.38;5001002;28;20172;-77
2023/04/14 09:57:40;;;;;;;39.53;4.10;;;;;;;22.33;32.52;93585.78;5002406;28;20169;-76
2023/04/14 10:00:15;;;;;;;34.47;4.97;;;;;;;22.46;31.29;93614.34;5007354;28;20176;-76
2023/04/14 10:02:54;;;;;;;16.67;3.50;;;;;;;22.61;31.41;93617.66;5000446;28;20240;-76
2023/04/14 10:05:26;;;;;;;28.00;4.30;;;;;;;22.08;31.06;93600.75;5000115;28;20235;-75
2023/04/14 10:07:52;;;;;;;12.00;3.45;;;;;;;22.28;32.14;93622.69;5001748;28;20283;-77
2023/04/14 10:10:19;;;;;;;27.15;5.80;;;;;;;22.16;30.96;93621.41;5020295;28;20280;-76
2023/04/14 10:12:45;;;;;;;17.48;3.13;;;;;;;22.32;32.51;93663.84;5003415;28;20227;-76
2023/04/14 10:15:11;;;;;;;21.25;3.67;;;;;;;22.07;31.99;93687.63;5002711;28;20180;-76
2023/04/14 10:17:41;;;;;;;46.10;3.55;;;;;;;21.83;32.77;93663.09;5003054;28;20261;-76
2023/04/14 10:20:07;;;;;;;29.73;3.75;;;;;;;21.72;34.30;93672.47;5002359;28;20240;-76
2023/04/14 10:22:33;;;;;;;24.48;3.88;;;;;;;21.77;33.25;93693.81;5005089;28;20658;-76
2023/04/14 10:25:00;;;;;;;39.33;5.47;;;;;;;21.59;33.16;93721.59;5004091;28;20263;-76
2023/04/14 10:27:28;;;;;;;28.90;4.95;;;;;;;21.53;35.29;93723.63;5003827;28;20204;-76
2023/04/14 10:29:54;;;;;;;25.25;3.03;;;;;;;21.50;34.48;93745.66;5006938;28;20200;-76
2023/04/14 10:32:22;;;;;;;25.35;4.07;;;;;;;21.17;35.74;93773.75;5002762;28;20181;-75
2023/04/14 10:35:02;;;;;;;30.63;4.40;;;;;;;20.64;38.17;93795.78;4997406;28;20267;-75
2023/04/14 10:37:28;;;;;;;19.17;3.42;;;;;;;20.16;40.52;93809.50;5000766;28;20200;-75
2023/04/14 10:39:55;;;;;;;10.43;2.70;;;;;;;19.73;43.01;93824.94;5002973;28;20227;-76
2023/04/14 10:42:20;;;;;;;7.60;3.30;;;;;;;19.66;46.43;93866.47;5003590;28;20226;-76
2023/04/14 10:45:02;;;;;;;12.82;2.42;;;;;;;19.40;46.34;93887.41;5001526;28;20172;-75
2023/04/14 10:47:28;;;;;;;8.02;2.65;;;;;;;19.09;46.29;93887.84;4996562;28;20271;-75
2023/04/14 10:49:55;;;;;;;3.78;2.45;;;;;;;19.00;47.08;93931.44;5000798;28;20256;-74
2023/04/14 10:52:24;;;;;;;4.00;2.00;;;;;;;18.93;48.66;93947.00;5001408;28;20296;-75
2023/04/14 10:55:06;;;;;;;3.50;1.50;;;;;;;18.80;48.94;93946.59;4999256;28;20172;-73
2023/04/14 10:57:35;;;;;;;2.92;1.48;;;;;;;18.55;47.54;93965.50;5001108;28;20168;-73
2023/04/14 11:00:19;;;;;;;2.13;1.00;;;;;;;18.06;46.99;93965.69;5006778;28;20168;-73
2023/04/14 11:03:09;;;;;;;0.90;0.90;;;;;;;17.46;47.52;93974.84;5003555;28;20243;-76
2023/04/14 11:05:34;;;;;;;3.42;1.38;;;;;;;17.05;47.62;93998.16;5006757;28;20283;-75
2023/04/14 11:08:11;;;;;;;2.33;1.40;;;;;;;17.06;49.09;94021.03;5002563;28;20636;-75
2023/04/14 11:10:36;;;;;;;5.45;2.00;;;;;;;16.98;48.57;94017.88;4994789;28;20601;-75
2023/04/14 11:13:09;;;;;;;1.70;0.98;;;;;;;16.76;47.42;94029.91;5000807;28;20184;-77
2023/04/14 11:15:46;;;;;;;2.58;1.08;;;;;;;16.47;48.81;94045.59;4996426;28;20231;-75
2023/04/14 11:18:14;;;;;;;3.15;1.48;;;;;;;16.44;49.22;94062.03;4998834;28;20176;-75
2023/04/14 11:20:41;;;;;;;2.35;1.40;;;;;;;16.07;49.09;94049.84;5010893;28;20179;-74
2023/04/14 11:23:08;;;;;;;1.95;1.10;;;;;;;15.91;49.93;94034.97;5006974;28;20685;-74
2023/04/14 11:25:33;;;;;;;3.35;0.90;;;;;;;15.46;48.16;94044.38;4998536;28;20208;-75
2023/04/14 11:28:02;;;;;;;2.05;1.25;;;;;;;15.17;47.37;94064.41;5001596;28;20232;-75
2023/04/14 11:30:27;;;;;;;3.55;1.77;;;;;;;15.00;49.08;94026.69;5005715;28;20657;-75
2023/04/14 11:32:57;;;;;;;4.55;2.70;;;;;;;15.17;48.01;94068.91;5004410;28;20177;-75